Silvis, Illinois
Current Conditions -  °F | °C
As of 6:52 AM on Monday 22 Dec 2014 (Local Time) from KMLI Reporting Station
Overcast Overcast  
Wind Chill: 30°   Ceiling: 4000
Heat Index: 37°   Visibility: 7mi
Dew Point: 32°   Wind: 10mph
Humidity: 82%   Direction: 120°ESE
Pressure: 29.8"   Gusts: NA
Location:  41.51°N, 90.41°W
Report Text: KMLI 221252Z 12009KT 7SM BKN040 OVC060 03/00 A2980 RMK AO2 SLP095 T00280000 $
Loading
Personal Weather Stations






























Interactive Weather Map New forecast layout! Learn more

10-Day Weather Forecast

Advertisements
Track Severe Weather on mobile